createdAt,value
2017-07-30T00:02:04.205Z,20.70
2017-07-30T00:04:33.266Z,20.70
2017-07-30T00:07:01.549Z,20.70
2017-07-30T00:09:29.844Z,20.70
2017-07-30T00:11:58.120Z,20.60
2017-07-30T00:14:26.478Z,20.60
2017-07-30T00:16:54.774Z,20.60
2017-07-30T00:19:23.062Z,20.60
2017-07-30T00:21:52.105Z,20.60
2017-07-30T00:24:20.378Z,20.50
2017-07-30T00:26:48.689Z,20.60
2017-07-30T00:29:16.969Z,20.50
2017-07-30T00:31:45.283Z,20.50
2017-07-30T00:34:14.337Z,20.50
2017-07-30T00:36:43.537Z,20.50
2017-07-30T00:39:11.798Z,20.60
2017-07-30T00:41:40.190Z,20.60
2017-07-30T00:44:08.472Z,20.60
2017-07-30T00:46:36.849Z,20.50
2017-07-30T00:49:05.274Z,20.50
2017-07-30T00:51:34.424Z,20.50
2017-07-30T00:54:02.692Z,20.50
2017-07-30T00:56:30.956Z,20.50
2017-07-30T00:58:59.251Z,20.50
2017-07-30T01:01:27.534Z,20.50
2017-07-30T01:03:55.918Z,20.40
2017-07-30T01:06:24.302Z,20.40
2017-07-30T01:08:52.672Z,20.30
2017-07-30T01:11:21.058Z,20.30
2017-07-30T01:13:49.354Z,20.20
2017-07-30T01:16:18.380Z,20.20
2017-07-30T01:18:46.700Z,20.20
2017-07-30T01:21:14.974Z,20.20
2017-07-30T01:23:43.242Z,20.20
2017-07-30T01:26:11.541Z,20.20
2017-07-30T01:28:40.598Z,20.20
2017-07-30T01:31:08.884Z,20.20
2017-07-30T01:33:37.247Z,20.30
2017-07-30T01:36:05.551Z,20.30
2017-07-30T01:38:33.925Z,20.30
2017-07-30T01:41:02.306Z,20.30
2017-07-30T01:43:30.668Z,20.20
2017-07-30T01:45:59.054Z,20.20
2017-07-30T01:48:27.328Z,20.30
2017-07-30T01:50:55.696Z,20.30
2017-07-30T01:53:23.980Z,20.30
2017-07-30T01:55:52.268Z,20.30
2017-07-30T01:58:20.549Z,20.30
2017-07-30T02:00:48.808Z,20.30
2017-07-30T02:03:17.209Z,20.30
2017-07-30T02:05:45.478Z,20.20
2017-07-30T02:08:13.752Z,20.30
2017-07-30T02:10:42.019Z,20.30
2017-07-30T02:13:10.305Z,20.20
2017-07-30T02:15:38.567Z,20.20
2017-07-30T02:18:06.961Z,20.30
2017-07-30T02:20:35.237Z,20.30
2017-07-30T02:23:03.512Z,20.20
2017-07-30T02:25:31.906Z,20.20
2017-07-30T02:28:00.260Z,20.20
2017-07-30T02:30:28.554Z,20.20
2017-07-30T02:32:56.938Z,20.10
2017-07-30T02:35:25.316Z,20.10
2017-07-30T02:37:53.575Z,20.10
2017-07-30T02:40:21.858Z,20.00
2017-07-30T02:42:50.111Z,20.00
2017-07-30T02:45:18.498Z,20.00
2017-07-30T02:47:46.800Z,20.00
2017-07-30T02:50:15.177Z,20.00
2017-07-30T02:52:43.539Z,20.00
2017-07-30T02:55:12.592Z,20.00
2017-07-30T02:57:40.885Z,19.90
2017-07-30T03:00:09.160Z,19.90
2017-07-30T03:02:37.450Z,19.90
2017-07-30T03:05:05.704Z,19.80
2017-07-30T03:07:34.082Z,19.80
2017-07-30T03:10:02.361Z,19.80
2017-07-30T03:12:30.655Z,19.70
2017-07-30T03:14:58.917Z,19.70
2017-07-30T03:17:27.214Z,19.70
2017-07-30T03:19:55.572Z,19.70
2017-07-30T03:22:23.842Z,19.60
2017-07-30T03:24:52.228Z,19.60
2017-07-30T03:27:20.525Z,19.60
2017-07-30T03:29:49.600Z,19.60
2017-07-30T03:32:17.865Z,19.60
2017-07-30T03:34:46.256Z,19.60
2017-07-30T03:37:14.532Z,19.60
2017-07-30T03:39:42.921Z,19.60
2017-07-30T03:42:11.291Z,19.60
2017-07-30T03:44:40.333Z,19.60
2017-07-30T03:47:08.633Z,19.60
2017-07-30T03:49:36.906Z,19.60
2017-07-30T03:52:05.289Z,19.60
2017-07-30T03:54:33.573Z,19.60
2017-07-30T03:57:01.878Z,19.60
2017-07-30T03:59:30.132Z,19.60
2017-07-30T04:01:58.546Z,19.60
2017-07-30T04:04:26.803Z,19.50
2017-07-30T04:06:55.115Z,19.50
2017-07-30T04:09:23.473Z,19.50
2017-07-30T04:11:51.749Z,19.50
2017-07-30T04:14:20.125Z,19.50
2017-07-30T04:16:48.398Z,19.50
2017-07-30T04:19:16.695Z,19.60
2017-07-30T04:21:45.761Z,19.60
2017-07-30T04:24:14.049Z,19.70
2017-07-30T04:26:42.728Z,19.70
2017-07-30T04:29:11.010Z,19.70
2017-07-30T04:31:39.486Z,19.80
2017-07-30T04:34:07.870Z,19.80
2017-07-30T04:36:36.244Z,19.80
2017-07-30T04:39:04.625Z,19.80
2017-07-30T04:41:32.994Z,19.80
2017-07-30T04:44:01.267Z,19.90
2017-07-30T04:46:29.549Z,19.90
2017-07-30T04:48:57.837Z,19.90
2017-07-30T04:51:26.252Z,19.90
2017-07-30T04:53:55.286Z,19.90
2017-07-30T04:56:23.575Z,19.90
2017-07-30T04:58:51.871Z,20.00
2017-07-30T05:01:20.153Z,20.00
2017-07-30T05:03:48.520Z,20.00
2017-07-30T05:06:16.900Z,20.10
2017-07-30T05:08:45.186Z,20.10
2017-07-30T05:11:13.580Z,20.20
2017-07-30T05:13:41.942Z,20.20
2017-07-30T05:16:10.195Z,20.20
2017-07-30T05:18:38.479Z,20.20
2017-07-30T05:21:06.774Z,20.20
2017-07-30T05:23:35.136Z,20.40
2017-07-30T05:26:03.396Z,20.50
2017-07-30T05:28:31.714Z,20.60
2017-07-30T05:31:00.074Z,20.60
2017-07-30T05:33:28.414Z,20.70
2017-07-30T05:35:56.677Z,20.80
2017-07-30T05:38:25.739Z,20.90
2017-07-30T05:40:54.156Z,20.80
2017-07-30T05:43:23.193Z,21.00
2017-07-30T05:45:51.494Z,21.00
2017-07-30T05:48:19.761Z,21.10
2017-07-30T05:50:48.153Z,21.20
2017-07-30T05:53:16.426Z,21.20
2017-07-30T05:55:44.808Z,21.40
2017-07-30T05:58:13.170Z,21.50
2017-07-30T06:00:41.473Z,21.70
2017-07-30T06:03:09.745Z,21.80
2017-07-30T06:05:37.997Z,22.00
2017-07-30T06:08:06.284Z,22.00
2017-07-30T06:10:34.558Z,22.00
2017-07-30T06:13:02.839Z,22.10
2017-07-30T06:15:31.097Z,22.10
2017-07-30T06:17:59.414Z,22.20
2017-07-30T06:20:27.776Z,22.10
2017-07-30T06:22:56.053Z,22.20
2017-07-30T06:25:24.445Z,22.30
2017-07-30T06:27:52.817Z,22.40
2017-07-30T06:30:21.096Z,22.60
2017-07-30T06:32:49.474Z,22.60
2017-07-30T06:35:17.727Z,22.70
2017-07-30T06:37:46.006Z,22.80
2017-07-30T06:40:14.298Z,22.90
2017-07-30T06:42:42.662Z,23.00
2017-07-30T06:45:10.930Z,23.00
2017-07-30T06:47:39.197Z,23.10
2017-07-30T06:50:07.587Z,23.20
2017-07-30T06:52:35.841Z,23.30
2017-07-30T06:55:04.124Z,23.30
2017-07-30T06:57:32.397Z,23.40
2017-07-30T07:00:00.806Z,23.50
2017-07-30T07:02:29.158Z,23.60
2017-07-30T07:04:57.450Z,23.70
2017-07-30T07:07:25.739Z,23.70
2017-07-30T07:09:54.068Z,23.90
2017-07-30T07:12:22.368Z,23.90
2017-07-30T07:14:50.650Z,24.00
2017-07-30T07:17:18.929Z,24.10
2017-07-30T07:19:47.213Z,24.20
2017-07-30T07:22:15.501Z,24.40
2017-07-30T07:24:43.762Z,24.50
2017-07-30T07:27:12.039Z,24.60
2017-07-30T07:29:40.311Z,24.80
2017-07-30T07:32:08.558Z,24.90
2017-07-30T07:34:36.863Z,24.90
2017-07-30T07:37:05.117Z,25.00
2017-07-30T07:39:33.425Z,25.10
2017-07-30T07:42:02.462Z,25.30
2017-07-30T07:44:30.731Z,25.30
2017-07-30T07:46:59.043Z,25.40
2017-07-30T07:49:27.417Z,25.50
2017-07-30T07:51:55.698Z,25.60
2017-07-30T07:54:24.094Z,25.70
2017-07-30T07:56:52.460Z,25.70
2017-07-30T07:59:20.749Z,25.90
2017-07-30T08:01:49.134Z,26.00
2017-07-30T08:04:17.406Z,26.20
2017-07-30T08:06:45.771Z,26.10
2017-07-30T08:09:14.025Z,26.20
2017-07-30T08:11:42.329Z,26.20
2017-07-30T08:14:10.614Z,26.20
2017-07-30T08:16:38.881Z,26.40
2017-07-30T08:19:07.132Z,26.40
2017-07-30T08:21:35.535Z,26.60
2017-07-30T08:24:03.815Z,26.60
2017-07-30T08:26:32.077Z,26.70
2017-07-30T08:29:00.504Z,26.80
2017-07-30T08:31:29.547Z,27.20
2017-07-30T08:33:57.837Z,27.20
2017-07-30T08:36:26.121Z,27.50
2017-07-30T08:38:54.519Z,27.60
2017-07-30T08:41:22.877Z,27.50
2017-07-30T08:43:51.479Z,27.70
2017-07-30T08:46:20.665Z,27.80
2017-07-30T08:48:49.050Z,27.70
2017-07-30T08:51:17.300Z,27.70
2017-07-30T08:53:45.586Z,27.80
2017-07-30T08:56:13.858Z,28.00
2017-07-30T08:58:42.113Z,28.00
2017-07-30T09:01:10.428Z,28.00
2017-07-30T09:03:38.698Z,28.10
2017-07-30T09:06:06.976Z,28.20
2017-07-30T09:08:35.253Z,28.30
2017-07-30T09:11:03.631Z,28.50
2017-07-30T09:13:31.925Z,28.70
2017-07-30T09:16:00.205Z,28.90
2017-07-30T09:18:28.566Z,29.00
2017-07-30T09:20:56.960Z,29.00
2017-07-30T09:23:25.326Z,29.10
2017-07-30T09:25:53.576Z,29.20
2017-07-30T09:28:21.857Z,29.30
2017-07-30T09:30:50.150Z,29.60
2017-07-30T09:33:18.544Z,29.80
2017-07-30T09:35:46.917Z,29.70
2017-07-30T09:38:15.286Z,29.80
2017-07-30T09:40:43.603Z,29.80
2017-07-30T09:43:11.993Z,29.90
2017-07-30T09:45:40.342Z,29.70
2017-07-30T09:48:08.621Z,29.80
2017-07-30T09:50:38.392Z,29.90
2017-07-30T09:53:06.701Z,29.90
2017-07-30T09:55:34.978Z,29.70
2017-07-30T09:58:03.244Z,29.80
2017-07-30T10:00:31.634Z,29.90
2017-07-30T10:02:59.888Z,30.10
2017-07-30T10:05:28.175Z,30.10
2017-07-30T10:07:56.470Z,30.10
2017-07-30T10:10:24.748Z,30.10
2017-07-30T10:12:53.126Z,30.20
2017-07-30T10:15:21.493Z,30.40
2017-07-30T10:17:50.605Z,30.50
2017-07-30T10:20:18.909Z,30.60
2017-07-30T10:22:47.961Z,30.30
2017-07-30T10:25:16.249Z,30.30
2017-07-30T10:27:44.517Z,30.30
2017-07-30T10:30:12.785Z,30.30
2017-07-30T10:32:41.192Z,30.20
2017-07-30T10:35:09.439Z,30.30
2017-07-30T10:37:37.831Z,30.50
2017-07-30T10:40:06.106Z,30.60
2017-07-30T10:42:34.487Z,30.70
2017-07-30T10:45:02.755Z,30.60
2017-07-30T10:47:31.116Z,30.60
2017-07-30T10:49:59.431Z,30.50
2017-07-30T10:52:27.817Z,30.50
2017-07-30T10:54:56.080Z,30.60
2017-07-30T10:57:24.397Z,30.70
2017-07-30T10:59:52.683Z,31.00
2017-07-30T11:02:20.951Z,31.00
2017-07-30T11:04:49.988Z,30.80
2017-07-30T11:07:18.254Z,30.80
2017-07-30T11:09:46.557Z,30.80
2017-07-30T11:12:14.826Z,31.00
2017-07-30T11:14:43.106Z,31.10
2017-07-30T11:17:11.380Z,31.00
2017-07-30T11:19:39.677Z,31.00
2017-07-30T11:22:08.032Z,31.10
2017-07-30T11:24:36.292Z,31.00
2017-07-30T11:27:04.604Z,30.90
2017-07-30T11:29:33.692Z,31.10
2017-07-30T11:32:02.076Z,31.10
2017-07-30T11:34:30.344Z,31.10
2017-07-30T11:36:58.616Z,31.30
2017-07-30T11:39:26.906Z,31.20
2017-07-30T11:41:55.182Z,31.40
2017-07-30T11:44:23.462Z,31.30
2017-07-30T11:46:51.844Z,31.30
2017-07-30T11:49:20.109Z,31.40
2017-07-30T11:51:48.479Z,31.40
2017-07-30T11:54:16.754Z,31.50
2017-07-30T11:56:45.014Z,31.70
2017-07-30T11:59:13.291Z,31.60
2017-07-30T12:01:41.557Z,31.70
2017-07-30T12:04:09.978Z,31.70
2017-07-30T12:06:38.230Z,31.80
2017-07-30T12:09:06.537Z,31.80
2017-07-30T12:11:34.796Z,31.80
2017-07-30T12:14:03.188Z,31.80
2017-07-30T12:16:31.439Z,32.00
2017-07-30T12:18:59.739Z,32.50
2017-07-30T12:21:28.031Z,33.20
2017-07-30T12:23:56.401Z,34.50
2017-07-30T12:26:24.665Z,35.80
2017-07-30T12:28:52.975Z,38.00
2017-07-30T12:31:21.251Z,39.00
2017-07-30T12:33:49.520Z,40.00
2017-07-30T12:36:17.811Z,40.60
2017-07-30T12:38:46.079Z,41.30
2017-07-30T12:41:14.447Z,41.30
2017-07-30T12:43:42.704Z,41.80
2017-07-30T12:46:11.048Z,42.20
2017-07-30T12:48:39.370Z,43.10
2017-07-30T12:51:07.766Z,43.10
2017-07-30T12:53:36.052Z,43.70
2017-07-30T12:56:04.385Z,43.80
2017-07-30T12:58:32.660Z,44.50
2017-07-30T13:01:00.920Z,45.50
2017-07-30T13:03:29.204Z,45.60
2017-07-30T13:05:57.482Z,44.40
2017-07-30T13:08:25.773Z,44.00
2017-07-30T13:10:54.137Z,44.70
2017-07-30T13:13:22.430Z,44.00
2017-07-30T13:15:50.798Z,44.10
2017-07-30T13:18:19.181Z,43.80
2017-07-30T13:20:47.455Z,43.20
2017-07-30T13:23:15.715Z,42.10
2017-07-30T13:25:44.009Z,41.10
2017-07-30T13:28:12.260Z,40.50
2017-07-30T13:30:40.547Z,41.60
2017-07-30T13:33:08.806Z,42.40
2017-07-30T13:35:37.112Z,42.00
2017-07-30T13:38:05.372Z,42.50
2017-07-30T13:40:33.673Z,41.90
2017-07-30T13:43:01.948Z,42.60
2017-07-30T13:45:30.221Z,42.60
2017-07-30T13:47:58.482Z,42.20
2017-07-30T13:50:26.798Z,42.40
2017-07-30T13:52:55.868Z,42.90
2017-07-30T13:55:24.124Z,42.90
2017-07-30T13:57:52.415Z,42.60
2017-07-30T14:00:20.707Z,42.40
2017-07-30T14:02:49.145Z,42.90
2017-07-30T14:05:17.466Z,43.00
2017-07-30T14:07:45.749Z,43.70
2017-07-30T14:10:14.028Z,43.00
2017-07-30T14:12:42.392Z,42.60
2017-07-30T14:15:10.660Z,42.10
2017-07-30T14:17:39.061Z,42.50
2017-07-30T14:20:07.321Z,42.40
2017-07-30T14:22:35.592Z,43.20
2017-07-30T14:25:03.890Z,43.10
2017-07-30T14:27:32.155Z,43.10
2017-07-30T14:30:00.524Z,42.70
2017-07-30T14:32:28.788Z,42.80
2017-07-30T14:34:57.107Z,42.90
2017-07-30T14:37:25.368Z,43.40
2017-07-30T14:39:53.745Z,43.30
2017-07-30T14:42:22.026Z,43.30
2017-07-30T14:44:50.413Z,42.50
2017-07-30T14:47:18.678Z,42.10
2017-07-30T14:49:46.957Z,40.80
2017-07-30T14:52:15.217Z,41.20
2017-07-30T14:54:43.480Z,41.40
2017-07-30T14:57:11.777Z,41.50
2017-07-30T14:59:40.063Z,41.20
2017-07-30T15:02:08.328Z,41.60
2017-07-30T15:04:36.620Z,41.80
2017-07-30T15:07:05.002Z,41.60
2017-07-30T15:09:33.265Z,41.30
2017-07-30T15:12:01.644Z,41.30
2017-07-30T15:14:29.918Z,41.20
2017-07-30T15:16:58.218Z,40.30
2017-07-30T15:19:26.482Z,39.20
2017-07-30T15:21:54.749Z,39.20
2017-07-30T15:24:23.041Z,39.30
2017-07-30T15:26:51.317Z,37.80
2017-07-30T15:29:19.689Z,36.50
2017-07-30T15:31:47.950Z,35.20
2017-07-30T15:34:16.232Z,34.50
2017-07-30T15:36:44.496Z,33.80
2017-07-30T15:39:12.779Z,33.70
2017-07-30T15:41:41.087Z,34.30
2017-07-30T15:44:09.381Z,35.20
2017-07-30T15:46:38.452Z,35.30
2017-07-30T15:49:06.727Z,35.30
2017-07-30T15:51:35.032Z,35.10
2017-07-30T15:54:03.293Z,35.00
2017-07-30T15:56:31.646Z,35.70
2017-07-30T15:58:59.929Z,36.80
2017-07-30T16:01:28.218Z,37.20
2017-07-30T16:03:56.482Z,37.50
2017-07-30T16:06:24.787Z,37.70
2017-07-30T16:08:53.857Z,38.20
2017-07-30T16:11:22.134Z,38.20
2017-07-30T16:13:50.417Z,38.70
2017-07-30T16:16:18.703Z,38.70
2017-07-30T16:18:47.058Z,39.20
2017-07-30T16:21:15.338Z,39.40
2017-07-30T16:23:43.634Z,39.40
2017-07-30T16:26:11.906Z,39.40
2017-07-30T16:28:40.378Z,39.70
2017-07-30T16:31:08.634Z,38.90
2017-07-30T16:33:37.035Z,39.00
2017-07-30T16:36:05.299Z,39.20
2017-07-30T16:38:33.567Z,38.60
2017-07-30T16:41:01.973Z,38.10
2017-07-30T16:43:30.227Z,38.00
2017-07-30T16:45:58.616Z,38.00
2017-07-30T16:48:28.017Z,37.80
2017-07-30T16:50:56.610Z,37.70
2017-07-30T16:53:24.891Z,38.30
2017-07-30T16:55:53.256Z,38.30
2017-07-30T16:58:21.544Z,37.40
2017-07-30T17:00:49.805Z,36.90
2017-07-30T17:03:18.197Z,36.10
2017-07-30T17:05:46.476Z,36.10
2017-07-30T17:08:14.853Z,36.00
2017-07-30T17:10:43.142Z,35.80
2017-07-30T17:13:11.454Z,35.60
2017-07-30T17:15:39.705Z,35.80
2017-07-30T17:18:08.122Z,35.70
2017-07-30T17:20:36.391Z,35.10
2017-07-30T17:23:04.766Z,34.90
2017-07-30T17:25:33.133Z,34.60
2017-07-30T17:28:01.392Z,34.50
2017-07-30T17:30:29.694Z,34.30
2017-07-30T17:32:57.949Z,34.00
2017-07-30T17:35:26.239Z,33.60
2017-07-30T17:37:54.515Z,33.00
2017-07-30T17:40:22.792Z,32.70
2017-07-30T17:42:51.080Z,32.50
2017-07-30T17:45:19.466Z,32.10
2017-07-30T17:47:47.741Z,31.80
2017-07-30T17:50:16.139Z,31.70
2017-07-30T17:52:44.489Z,31.40
2017-07-30T17:55:12.777Z,31.10
2017-07-30T17:57:41.143Z,31.00
2017-07-30T18:00:09.427Z,30.90
2017-07-30T18:02:37.806Z,30.70
2017-07-30T18:05:06.083Z,30.50
2017-07-30T18:07:34.449Z,30.30
2017-07-30T18:10:02.724Z,30.20
2017-07-30T18:12:31.003Z,30.00
2017-07-30T18:14:59.274Z,29.90
2017-07-30T18:17:27.688Z,29.80
2017-07-30T18:19:56.056Z,29.70
2017-07-30T18:22:24.322Z,29.60
2017-07-30T18:24:52.597Z,29.60
2017-07-30T18:27:20.886Z,29.50
2017-07-30T18:29:49.156Z,29.40
2017-07-30T18:32:17.433Z,29.40
2017-07-30T18:34:45.757Z,29.40
2017-07-30T18:37:14.022Z,29.30
2017-07-30T18:39:42.285Z,29.30
2017-07-30T18:42:10.569Z,29.30
2017-07-30T18:44:38.877Z,29.40
2017-07-30T18:47:07.250Z,29.40
2017-07-30T18:49:35.538Z,29.50
2017-07-30T18:52:03.918Z,29.40
2017-07-30T18:54:32.205Z,29.20
2017-07-30T18:57:00.465Z,29.10
2017-07-30T18:59:28.757Z,29.00
2017-07-30T19:01:57.035Z,28.90
2017-07-30T19:04:25.404Z,28.70
2017-07-30T19:06:53.785Z,28.60
2017-07-30T19:09:22.037Z,28.40
2017-07-30T19:11:50.328Z,28.30
2017-07-30T19:14:18.617Z,28.20
2017-07-30T19:16:46.930Z,28.10
2017-07-30T19:19:15.999Z,28.00
2017-07-30T19:21:44.280Z,28.00
2017-07-30T19:24:12.542Z,27.90
2017-07-30T19:26:40.829Z,27.80
2017-07-30T19:29:09.108Z,27.70
2017-07-30T19:31:37.365Z,27.60
2017-07-30T19:34:05.750Z,27.50
2017-07-30T19:36:34.053Z,27.50
2017-07-30T19:39:02.332Z,27.40
2017-07-30T19:41:31.357Z,27.30
2017-07-30T19:43:59.645Z,27.30
2017-07-30T19:46:27.919Z,27.20
2017-07-30T19:48:56.248Z,27.10
2017-07-30T19:51:24.510Z,27.00
2017-07-30T19:53:52.778Z,27.00
2017-07-30T19:56:21.148Z,27.00
2017-07-30T19:58:49.405Z,27.00
2017-07-30T20:01:17.714Z,26.90
2017-07-30T20:03:45.994Z,26.90
2017-07-30T20:06:14.376Z,26.90
2017-07-30T20:08:42.641Z,26.80
2017-07-30T20:11:10.929Z,26.80
2017-07-30T20:13:39.207Z,26.80
2017-07-30T20:16:07.474Z,26.80
2017-07-30T20:18:35.791Z,26.70
2017-07-30T20:21:04.855Z,26.60
2017-07-30T20:23:33.184Z,26.60
2017-07-30T20:26:02.298Z,26.60
2017-07-30T20:28:31.171Z,26.50
2017-07-30T20:30:59.437Z,26.50
2017-07-30T20:33:27.803Z,26.50
2017-07-30T20:35:56.070Z,26.40
2017-07-30T20:38:24.451Z,26.40
2017-07-30T20:40:52.751Z,26.50
2017-07-30T20:43:21.041Z,26.50
2017-07-30T20:45:49.346Z,26.40
2017-07-30T20:48:17.652Z,26.30
2017-07-30T20:50:46.717Z,26.30
2017-07-30T20:53:14.971Z,26.30
2017-07-30T20:55:43.255Z,26.30
2017-07-30T20:58:11.541Z,26.30
2017-07-30T21:00:39.922Z,26.20
2017-07-30T21:03:08.184Z,26.10
2017-07-30T21:05:36.475Z,26.10
2017-07-30T21:08:04.767Z,26.00
2017-07-30T21:10:33.137Z,25.90
2017-07-30T21:13:01.407Z,25.90
2017-07-30T21:15:29.802Z,25.80
2017-07-30T21:17:58.070Z,25.80
2017-07-30T21:20:26.342Z,25.70
2017-07-30T21:22:54.618Z,25.70
2017-07-30T21:25:22.893Z,25.60
2017-07-30T21:27:51.310Z,25.60
2017-07-30T21:30:20.369Z,25.40
2017-07-30T21:32:48.746Z,25.40
2017-07-30T21:35:17.020Z,25.40
2017-07-30T21:37:45.309Z,25.40
2017-07-30T21:40:13.565Z,25.30
2017-07-30T21:42:41.958Z,25.30
2017-07-30T21:45:10.209Z,25.30
2017-07-30T21:47:38.523Z,25.30
2017-07-30T21:50:06.807Z,25.20
2017-07-30T21:52:35.060Z,25.20
2017-07-30T21:55:03.466Z,25.20
2017-07-30T21:57:31.744Z,25.10
2017-07-30T22:00:00.026Z,25.10
2017-07-30T22:02:28.392Z,25.10
2017-07-30T22:04:56.772Z,25.10
2017-07-30T22:07:25.019Z,25.10
2017-07-30T22:09:53.418Z,25.10
2017-07-30T22:12:21.732Z,25.10
2017-07-30T22:14:50.773Z,25.10
2017-07-30T22:17:19.158Z,25.00
2017-07-30T22:19:47.511Z,25.10
2017-07-30T22:22:15.806Z,25.10
2017-07-30T22:24:44.056Z,25.10
2017-07-30T22:27:12.369Z,25.10
2017-07-30T22:29:40.634Z,25.00
2017-07-30T22:32:09.017Z,25.00
2017-07-30T22:34:37.279Z,25.10
2017-07-30T22:37:05.578Z,25.00
2017-07-30T22:39:33.946Z,25.00
2017-07-30T22:42:02.234Z,25.00
2017-07-30T22:44:30.588Z,24.90
2017-07-30T22:46:58.846Z,24.90
2017-07-30T22:49:27.668Z,24.90
2017-07-30T22:51:55.974Z,24.90
2017-07-30T22:54:25.010Z,24.90
2017-07-30T22:56:53.322Z,24.90
2017-07-30T22:59:21.597Z,24.90
2017-07-30T23:01:49.874Z,24.90
2017-07-30T23:04:18.251Z,24.80
2017-07-30T23:06:46.514Z,24.80
2017-07-30T23:09:14.820Z,24.80
2017-07-30T23:11:43.105Z,24.80
2017-07-30T23:14:12.143Z,24.80
2017-07-30T23:16:40.461Z,24.70
2017-07-30T23:19:08.716Z,24.70
2017-07-30T23:21:36.988Z,24.60
2017-07-30T23:24:05.252Z,24.60
2017-07-30T23:26:33.540Z,24.60
2017-07-30T23:29:01.842Z,24.50
2017-07-30T23:31:30.212Z,24.50
2017-07-30T23:33:58.476Z,24.50
2017-07-30T23:36:26.878Z,24.40
2017-07-30T23:38:55.141Z,24.40
2017-07-30T23:41:23.433Z,24.30
2017-07-30T23:43:51.714Z,24.10
2017-07-30T23:46:20.085Z,24.10
2017-07-30T23:48:48.363Z,24.00
2017-07-30T23:51:16.622Z,23.90
2017-07-30T23:53:44.957Z,23.80
2017-07-30T23:56:14.011Z,23.70
2017-07-30T23:58:42.394Z,23.70
